Archival Weather

Half Moon Bay

Half Moon Bay, California (KHAF)

Report from: Wednesday, December 6, 2023 2:55 AM PST
Current time: Saturday, February 24, 2024 8:46 AM PST

Current weather – Weather history – Daily summaries
Weather forecast

Present weatherMist
Temperature9.0°C (48.2°F)
Dew point9.0°C (48.2°F)
Winds Calm
Visibility3960 ft. (1.2 km)
Clouds Ceiling: Overcast 200 ft. (61 m)
Altimeter30.06 in.Hg (1018 mB)
Relative humidity100 %
Density altitude-715 ft. (-218 m)
Remarks Fully automated report
Automated weather observing station with precipitation discriminator
Flight conditions Low Instrument Meteorological Conditions
Raw dataKHAF 061055Z AUTO 00000KT 3/4SM BR OVC002 09/09 A3006 RMK AO2
An error has occurred. This application may no longer respond until reloaded. Reload 🗙